KIDA/IDA METAR and TAF weather

Enter ICAO airport designator
Station Type Date Time Source
KIDA METAR 2022/06/28 09:53 UTC NOAA

KIDA 280953Z AUTO 36007KT 10SM CLR 13/07 A3020 RMK AO2 SLP181 T01280072


Station Type Date Time Source
KIDA Decoded METAR 2022/06/28 09:53 UTC NOAA

IDAHO FALLS REGIONAL AIRPORT, ID, United States (KIDA) 43-31N 112-04W 1453M
Jun 28, 2022 - 05:53 AM EDT / 2022.06.28 0953 UTC
Wind: from the N (360 degrees) at 8 MPH (7 KT):0
Visibility: 10 mile(s):0
Sky conditions: clear
Temperature: 55.0 F (12.8 C)
Dew Point: 45.0 F (7.2 C)
Relative Humidity: 68%
Pressure (altimeter): 30.2 in. Hg (1022 hPa)
ob: KIDA 280953Z AUTO 36007KT 10SM CLR 13/07 A3020 RMK AO2 SLP181 T01280072
cycle: 10

Station Type Date Time Source
KIDA TAF 2022/06/28 06:22 UTC NOAA

TAF KIDA 280520Z 2806/2906 VRB06KT P6SM FEW150
FM281700 21016G26KT P6SM VCTS BKN120CB
FM290300 19011KT P6SM VCTS SCT120CB

Example: see airport list